sensor_id;sensor_type;location;lat;lon;timestamp;P1;durP1;ratioP1;P2;durP2;ratioP2
19846;SDS011;10084;50.518;8.588;2023-03-29T00:01:49;2.63;;;0.70;;
19846;SDS011;10084;50.518;8.588;2023-03-29T00:04:16;3.20;;;0.50;;
19846;SDS011;10084;50.518;8.588;2023-03-29T00:06:44;1.17;;;0.60;;
19846;SDS011;10084;50.518;8.588;2023-03-29T00:09:12;1.00;;;0.80;;
19846;SDS011;10084;50.518;8.588;2023-03-29T00:11:38;0.73;;;0.70;;
19846;SDS011;10084;50.518;8.588;2023-03-29T00:14:04;0.67;;;0.67;;
19846;SDS011;10084;50.518;8.588;2023-03-29T00:16:30;0.63;;;0.60;;
19846;SDS011;10084;50.518;8.588;2023-03-29T00:18:56;0.77;;;0.57;;
19846;SDS011;10084;50.518;8.588;2023-03-29T00:21:21;0.60;;;0.60;;
19846;SDS011;10084;50.518;8.588;2023-03-29T00:23:48;1.33;;;0.87;;
19846;SDS011;10084;50.518;8.588;2023-03-29T00:26:13;0.50;;;0.50;;
19846;SDS011;10084;50.518;8.588;2023-03-29T00:28:39;2.10;;;0.80;;
19846;SDS011;10084;50.518;8.588;2023-03-29T00:31:06;1.57;;;0.80;;
19846;SDS011;10084;50.518;8.588;2023-03-29T00:33:36;3.73;;;0.53;;
19846;SDS011;10084;50.518;8.588;2023-03-29T00:36:03;1.67;;;1.00;;
19846;SDS011;10084;50.518;8.588;2023-03-29T00:38:29;0.73;;;0.70;;
19846;SDS011;10084;50.518;8.588;2023-03-29T00:40:55;0.93;;;0.90;;
19846;SDS011;10084;50.518;8.588;2023-03-29T00:43:21;2.53;;;0.90;;
19846;SDS011;10084;50.518;8.588;2023-03-29T00:45:47;1.10;;;1.00;;
19846;SDS011;10084;50.518;8.588;2023-03-29T00:48:14;1.07;;;0.87;;
19846;SDS011;10084;50.518;8.588;2023-03-29T00:50:49;0.80;;;0.60;;
19846;SDS011;10084;50.518;8.588;2023-03-29T00:58:41;1.30;;;0.80;;
19846;SDS011;10084;50.518;8.588;2023-03-29T01:01:13;1.00;;;0.80;;
19846;SDS011;10084;50.518;8.588;2023-03-29T01:03:49;1.10;;;1.00;;
19846;SDS011;10084;50.518;8.588;2023-03-29T01:06:20;0.70;;;0.70;;
19846;SDS011;10084;50.518;8.588;2023-03-29T01:08:50;0.93;;;0.60;;
19846;SDS011;10084;50.518;8.588;2023-03-29T01:11:25;2.93;;;0.60;;
19846;SDS011;10084;50.518;8.588;2023-03-29T01:16:25;0.93;;;0.87;;
19846;SDS011;10084;50.518;8.588;2023-03-29T01:18:53;1.13;;;0.80;;
19846;SDS011;10084;50.518;8.588;2023-03-29T01:21:24;1.20;;;0.83;;
19846;SDS011;10084;50.518;8.588;2023-03-29T01:29:50;0.87;;;0.80;;
19846;SDS011;10084;50.518;8.588;2023-03-29T01:32:25;0.80;;;0.77;;
19846;SDS011;10084;50.518;8.588;2023-03-29T01:35:10;4.03;;;0.83;;
19846;SDS011;10084;50.518;8.588;2023-03-29T01:38:16;0.73;;;0.73;;
19846;SDS011;10084;50.518;8.588;2023-03-29T01:40:46;5.30;;;0.90;;
19846;SDS011;10084;50.518;8.588;2023-03-29T01:46:08;3.83;;;0.73;;
19846;SDS011;10084;50.518;8.588;2023-03-29T01:48:53;2.20;;;1.00;;
19846;SDS011;10084;50.518;8.588;2023-03-29T01:51:34;1.17;;;1.03;;
19846;SDS011;10084;50.518;8.588;2023-03-29T01:56:54;1.13;;;0.80;;
19846;SDS011;10084;50.518;8.588;2023-03-29T01:59:22;0.77;;;0.77;;
19846;SDS011;10084;50.518;8.588;2023-03-29T02:01:53;0.60;;;0.50;;
19846;SDS011;10084;50.518;8.588;2023-03-29T02:04:29;10.23;;;1.20;;
19846;SDS011;10084;50.518;8.588;2023-03-29T02:06:58;1.50;;;0.90;;
19846;SDS011;10084;50.518;8.588;2023-03-29T02:09:25;3.13;;;0.60;;
19846;SDS011;10084;50.518;8.588;2023-03-29T02:11:52;1.00;;;0.90;;
19846;SDS011;10084;50.518;8.588;2023-03-29T02:14:23;1.53;;;1.43;;
19846;SDS011;10084;50.518;8.588;2023-03-29T02:16:49;2.70;;;1.30;;
19846;SDS011;10084;50.518;8.588;2023-03-29T02:19:16;1.03;;;0.90;;
19846;SDS011;10084;50.518;8.588;2023-03-29T02:21:58;1.30;;;1.10;;
19846;SDS011;10084;50.518;8.588;2023-03-29T02:24:33;0.97;;;0.83;;
19846;SDS011;10084;50.518;8.588;2023-03-29T02:27:01;1.40;;;1.03;;
19846;SDS011;10084;50.518;8.588;2023-03-29T02:29:28;1.33;;;0.90;;
19846;SDS011;10084;50.518;8.588;2023-03-29T02:32:14;0.90;;;0.90;;
19846;SDS011;10084;50.518;8.588;2023-03-29T02:34:50;1.37;;;1.27;;
19846;SDS011;10084;50.518;8.588;2023-03-29T02:37:22;1.03;;;0.83;;
19846;SDS011;10084;50.518;8.588;2023-03-29T02:39:54;1.50;;;0.87;;
19846;SDS011;10084;50.518;8.588;2023-03-29T02:42:21;1.20;;;1.10;;
19846;SDS011;10084;50.518;8.588;2023-03-29T02:44:51;1.83;;;1.20;;
19846;SDS011;10084;50.518;8.588;2023-03-29T02:47:23;2.60;;;1.20;;
19846;SDS011;10084;50.518;8.588;2023-03-29T02:49:59;1.20;;;1.00;;
19846;SDS011;10084;50.518;8.588;2023-03-29T02:52:27;1.90;;;1.27;;
19846;SDS011;10084;50.518;8.588;2023-03-29T02:54:59;2.43;;;1.07;;
19846;SDS011;10084;50.518;8.588;2023-03-29T02:57:27;3.47;;;1.20;;
19846;SDS011;10084;50.518;8.588;2023-03-29T02:59:54;1.13;;;0.83;;
19846;SDS011;10084;50.518;8.588;2023-03-29T03:02:21;1.33;;;0.83;;
19846;SDS011;10084;50.518;8.588;2023-03-29T03:04:52;1.50;;;1.07;;
19846;SDS011;10084;50.518;8.588;2023-03-29T03:07:18;1.80;;;1.33;;
19846;SDS011;10084;50.518;8.588;2023-03-29T03:09:44;1.30;;;1.00;;
19846;SDS011;10084;50.518;8.588;2023-03-29T03:12:12;0.83;;;0.80;;
19846;SDS011;10084;50.518;8.588;2023-03-29T03:14:38;4.47;;;1.17;;
19846;SDS011;10084;50.518;8.588;2023-03-29T03:17:04;1.50;;;1.20;;
19846;SDS011;10084;50.518;8.588;2023-03-29T03:19:31;1.77;;;1.13;;
19846;SDS011;10084;50.518;8.588;2023-03-29T03:21:56;1.40;;;1.13;;
19846;SDS011;10084;50.518;8.588;2023-03-29T03:24:22;1.40;;;1.23;;
19846;SDS011;10084;50.518;8.588;2023-03-29T03:26:48;2.90;;;1.60;;
19846;SDS011;10084;50.518;8.588;2023-03-29T03:29:14;3.97;;;1.23;;
19846;SDS011;10084;50.518;8.588;2023-03-29T03:32:12;2.47;;;0.83;;
19846;SDS011;10084;50.518;8.588;2023-03-29T03:35:10;1.10;;;1.10;;
19846;SDS011;10084;50.518;8.588;2023-03-29T03:37:37;3.10;;;0.90;;
19846;SDS011;10084;50.518;8.588;2023-03-29T03:40:04;5.40;;;1.30;;
19846;SDS011;10084;50.518;8.588;2023-03-29T03:42:32;1.07;;;0.97;;
19846;SDS011;10084;50.518;8.588;2023-03-29T03:44:58;1.60;;;1.10;;
19846;SDS011;10084;50.518;8.588;2023-03-29T03:47:42;1.03;;;0.93;;
19846;SDS011;10084;50.518;8.588;2023-03-29T03:50:20;3.77;;;1.23;;
19846;SDS011;10084;50.518;8.588;2023-03-29T03:52:45;1.13;;;1.03;;
19846;SDS011;10084;50.518;8.588;2023-03-29T03:55:11;1.33;;;0.93;;
19846;SDS011;10084;50.518;8.588;2023-03-29T03:57:44;1.70;;;1.53;;
19846;SDS011;10084;50.518;8.588;2023-03-29T04:00:13;1.10;;;1.10;;
19846;SDS011;10084;50.518;8.588;2023-03-29T04:02:53;2.43;;;1.23;;
19846;SDS011;10084;50.518;8.588;2023-03-29T04:05:20;1.33;;;1.23;;
19846;SDS011;10084;50.518;8.588;2023-03-29T04:07:46;2.33;;;1.57;;
19846;SDS011;10084;50.518;8.588;2023-03-29T04:10:27;1.43;;;1.30;;
19846;SDS011;10084;50.518;8.588;2023-03-29T04:13:03;1.27;;;1.03;;
19846;SDS011;10084;50.518;8.588;2023-03-29T04:15:32;2.33;;;0.80;;
19846;SDS011;10084;50.518;8.588;2023-03-29T04:18:04;2.43;;;1.20;;
19846;SDS011;10084;50.518;8.588;2023-03-29T04:20:35;1.43;;;1.33;;
19846;SDS011;10084;50.518;8.588;2023-03-29T04:23:02;1.80;;;1.30;;
19846;SDS011;10084;50.518;8.588;2023-03-29T04:25:28;1.10;;;1.00;;
19846;SDS011;10084;50.518;8.588;2023-03-29T04:28:14;1.83;;;0.93;;
19846;SDS011;10084;50.518;8.588;2023-03-29T04:30:46;3.90;;;1.00;;
19846;SDS011;10084;50.518;8.588;2023-03-29T04:33:33;2.30;;;0.90;;
19846;SDS011;10084;50.518;8.588;2023-03-29T04:35:59;1.07;;;0.97;;
19846;SDS011;10084;50.518;8.588;2023-03-29T04:38:25;1.83;;;1.20;;
19846;SDS011;10084;50.518;8.588;2023-03-29T04:40:53;6.40;;;1.40;;
19846;SDS011;10084;50.518;8.588;2023-03-29T04:43:24;1.20;;;1.10;;
19846;SDS011;10084;50.518;8.588;2023-03-29T04:45:56;1.57;;;1.20;;
19846;SDS011;10084;50.518;8.588;2023-03-29T04:48:42;4.13;;;0.90;;
19846;SDS011;10084;50.518;8.588;2023-03-29T04:51:07;1.50;;;0.90;;
19846;SDS011;10084;50.518;8.588;2023-03-29T04:53:33;1.10;;;0.80;;
19846;SDS011;10084;50.518;8.588;2023-03-29T04:55:59;1.17;;;1.07;;
19846;SDS011;10084;50.518;8.588;2023-03-29T04:58:47;2.60;;;1.23;;
19846;SDS011;10084;50.518;8.588;2023-03-29T05:01:14;1.10;;;1.00;;
19846;SDS011;10084;50.518;8.588;2023-03-29T05:03:44;2.43;;;1.33;;
19846;SDS011;10084;50.518;8.588;2023-03-29T05:06:18;1.33;;;1.13;;
19846;SDS011;10084;50.518;8.588;2023-03-29T05:08:44;1.13;;;0.97;;
19846;SDS011;10084;50.518;8.588;2023-03-29T05:11:30;0.70;;;0.70;;
19846;SDS011;10084;50.518;8.588;2023-03-29T05:13:57;1.70;;;1.17;;
19846;SDS011;10084;50.518;8.588;2023-03-29T05:16:28;1.73;;;1.50;;
19846;SDS011;10084;50.518;8.588;2023-03-29T05:18:58;1.40;;;1.20;;
19846;SDS011;10084;50.518;8.588;2023-03-29T05:21:24;1.60;;;1.50;;
19846;SDS011;10084;50.518;8.588;2023-03-29T05:23:51;1.33;;;1.10;;
19846;SDS011;10084;50.518;8.588;2023-03-29T05:26:40;3.20;;;0.80;;
19846;SDS011;10084;50.518;8.588;2023-03-29T05:29:06;1.77;;;0.90;;
19846;SDS011;10084;50.518;8.588;2023-03-29T05:31:33;1.30;;;1.20;;
19846;SDS011;10084;50.518;8.588;2023-03-29T05:33:59;1.53;;;1.10;;
19846;SDS011;10084;50.518;8.588;2023-03-29T05:36:27;1.17;;;1.00;;
19846;SDS011;10084;50.518;8.588;2023-03-29T05:38:53;2.03;;;1.43;;
19846;SDS011;10084;50.518;8.588;2023-03-29T05:41:21;1.13;;;1.03;;
19846;SDS011;10084;50.518;8.588;2023-03-29T05:44:03;2.07;;;1.90;;
19846;SDS011;10084;50.518;8.588;2023-03-29T05:46:29;1.43;;;1.33;;
19846;SDS011;10084;50.518;8.588;2023-03-29T05:48:59;1.37;;;1.27;;
19846;SDS011;10084;50.518;8.588;2023-03-29T05:51:44;3.07;;;1.77;;
19846;SDS011;10084;50.518;8.588;2023-03-29T05:54:10;1.37;;;1.27;;
19846;SDS011;10084;50.518;8.588;2023-03-29T05:56:36;1.23;;;1.10;;
19846;SDS011;10084;50.518;8.588;2023-03-29T05:59:02;1.47;;;1.37;;
19846;SDS011;10084;50.518;8.588;2023-03-29T06:01:28;7.13;;;1.60;;
19846;SDS011;10084;50.518;8.588;2023-03-29T06:03:59;1.67;;;1.50;;
19846;SDS011;10084;50.518;8.588;2023-03-29T06:06:32;1.47;;;1.37;;
19846;SDS011;10084;50.518;8.588;2023-03-29T06:08:58;1.60;;;1.50;;
19846;SDS011;10084;50.518;8.588;2023-03-29T06:11:31;1.60;;;1.50;;
19846;SDS011;10084;50.518;8.588;2023-03-29T06:14:13;1.57;;;1.47;;
19846;SDS011;10084;50.518;8.588;2023-03-29T06:16:44;5.87;;;1.43;;
19846;SDS011;10084;50.518;8.588;2023-03-29T06:19:11;2.40;;;2.20;;
19846;SDS011;10084;50.518;8.588;2023-03-29T06:21:38;1.70;;;1.50;;
19846;SDS011;10084;50.518;8.588;2023-03-29T06:24:08;2.03;;;1.53;;
19846;SDS011;10084;50.518;8.588;2023-03-29T06:26:40;2.33;;;1.40;;
19846;SDS011;10084;50.518;8.588;2023-03-29T06:29:06;4.27;;;1.70;;
19846;SDS011;10084;50.518;8.588;2023-03-29T06:31:33;1.53;;;1.43;;
19846;SDS011;10084;50.518;8.588;2023-03-29T06:34:01;1.93;;;1.77;;
19846;SDS011;10084;50.518;8.588;2023-03-29T06:36:47;3.67;;;2.17;;
19846;SDS011;10084;50.518;8.588;2023-03-29T06:39:17;2.60;;;1.70;;
19846;SDS011;10084;50.518;8.588;2023-03-29T06:42:03;1.27;;;1.17;;
19846;SDS011;10084;50.518;8.588;2023-03-29T06:44:53;2.00;;;1.10;;
19846;SDS011;10084;50.518;8.588;2023-03-29T06:47:19;5.67;;;1.20;;
19846;SDS011;10084;50.518;8.588;2023-03-29T06:49:44;1.30;;;1.20;;
19846;SDS011;10084;50.518;8.588;2023-03-29T06:52:25;5.50;;;1.47;;
19846;SDS011;10084;50.518;8.588;2023-03-29T06:54:51;1.37;;;1.27;;
19846;SDS011;10084;50.518;8.588;2023-03-29T06:57:17;1.33;;;1.23;;
19846;SDS011;10084;50.518;8.588;2023-03-29T06:59:43;1.93;;;1.70;;
19846;SDS011;10084;50.518;8.588;2023-03-29T07:02:19;2.57;;;2.27;;
19846;SDS011;10084;50.518;8.588;2023-03-29T07:04:50;4.47;;;1.93;;
19846;SDS011;10084;50.518;8.588;2023-03-29T07:07:20;3.20;;;2.27;;
19846;SDS011;10084;50.518;8.588;2023-03-29T07:10:05;2.40;;;2.10;;
19846;SDS011;10084;50.518;8.588;2023-03-29T07:12:50;2.23;;;1.77;;
19846;SDS011;10084;50.518;8.588;2023-03-29T07:15:17;2.73;;;2.00;;
19846;SDS011;10084;50.518;8.588;2023-03-29T07:18:20;5.67;;;1.53;;
19846;SDS011;10084;50.518;8.588;2023-03-29T07:20:46;1.43;;;1.30;;
19846;SDS011;10084;50.518;8.588;2023-03-29T07:23:12;1.33;;;1.23;;
19846;SDS011;10084;50.518;8.588;2023-03-29T07:25:38;1.33;;;1.23;;
19846;SDS011;10084;50.518;8.588;2023-03-29T07:28:05;1.20;;;1.00;;
19846;SDS011;10084;50.518;8.588;2023-03-29T07:30:31;4.40;;;1.37;;
19846;SDS011;10084;50.518;8.588;2023-03-29T07:33:09;3.13;;;1.00;;
19846;SDS011;10084;50.518;8.588;2023-03-29T07:35:40;1.30;;;1.13;;
19846;SDS011;10084;50.518;8.588;2023-03-29T07:38:08;0.77;;;0.70;;
19846;SDS011;10084;50.518;8.588;2023-03-29T07:40:37;0.80;;;0.73;;
19846;SDS011;10084;50.518;8.588;2023-03-29T07:43:31;2.90;;;1.50;;
19846;SDS011;10084;50.518;8.588;2023-03-29T07:46:04;1.90;;;1.40;;
19846;SDS011;10084;50.518;8.588;2023-03-29T07:48:32;2.20;;;1.40;;
19846;SDS011;10084;50.518;8.588;2023-03-29T07:51:03;2.30;;;1.30;;
19846;SDS011;10084;50.518;8.588;2023-03-29T07:53:38;1.93;;;1.40;;
19846;SDS011;10084;50.518;8.588;2023-03-29T07:56:12;1.17;;;0.87;;
19846;SDS011;10084;50.518;8.588;2023-03-29T07:58:48;2.00;;;1.20;;
19846;SDS011;10084;50.518;8.588;2023-03-29T08:01:16;5.23;;;1.30;;
19846;SDS011;10084;50.518;8.588;2023-03-29T08:04:03;1.90;;;1.23;;
19846;SDS011;10084;50.518;8.588;2023-03-29T08:06:47;3.03;;;1.10;;
19846;SDS011;10084;50.518;8.588;2023-03-29T08:09:14;2.50;;;1.43;;
19846;SDS011;10084;50.518;8.588;2023-03-29T08:11:42;2.03;;;1.50;;
19846;SDS011;10084;50.518;8.588;2023-03-29T08:14:17;2.10;;;1.33;;
19846;SDS011;10084;50.518;8.588;2023-03-29T08:16:54;8.40;;;1.40;;
19846;SDS011;10084;50.518;8.588;2023-03-29T08:19:20;6.43;;;1.43;;
19846;SDS011;10084;50.518;8.588;2023-03-29T08:22:02;1.07;;;0.77;;
19846;SDS011;10084;50.518;8.588;2023-03-29T08:24:38;1.50;;;1.20;;
19846;SDS011;10084;50.518;8.588;2023-03-29T08:27:05;1.70;;;1.40;;
19846;SDS011;10084;50.518;8.588;2023-03-29T08:29:31;4.00;;;1.23;;
19846;SDS011;10084;50.518;8.588;2023-03-29T08:31:57;1.50;;;1.40;;
19846;SDS011;10084;50.518;8.588;2023-03-29T08:34:23;1.40;;;1.30;;
19846;SDS011;10084;50.518;8.588;2023-03-29T08:37:13;1.27;;;1.10;;
19846;SDS011;10084;50.518;8.588;2023-03-29T08:39:43;1.20;;;1.10;;
19846;SDS011;10084;50.518;8.588;2023-03-29T08:42:34;5.60;;;1.67;;
19846;SDS011;10084;50.518;8.588;2023-03-29T08:45:23;3.07;;;1.57;;
19846;SDS011;10084;50.518;8.588;2023-03-29T08:48:20;1.87;;;1.67;;
19846;SDS011;10084;50.518;8.588;2023-03-29T08:50:53;2.60;;;1.47;;
19846;SDS011;10084;50.518;8.588;2023-03-29T08:53:34;1.77;;;1.57;;
19846;SDS011;10084;50.518;8.588;2023-03-29T08:56:22;1.77;;;1.67;;
19846;SDS011;10084;50.518;8.588;2023-03-29T08:58:59;1.63;;;1.40;;
19846;SDS011;10084;50.518;8.588;2023-03-29T09:01:31;1.73;;;1.43;;
19846;SDS011;10084;50.518;8.588;2023-03-29T09:04:05;5.40;;;1.70;;
19846;SDS011;10084;50.518;8.588;2023-03-29T09:06:47;2.13;;;1.63;;
19846;SDS011;10084;50.518;8.588;2023-03-29T09:09:21;3.97;;;1.60;;
19846;SDS011;10084;50.518;8.588;2023-03-29T09:11:55;4.30;;;1.47;;
19846;SDS011;10084;50.518;8.588;2023-03-29T09:14:34;2.97;;;1.80;;
19846;SDS011;10084;50.518;8.588;2023-03-29T09:20:12;2.00;;;1.80;;
19846;SDS011;10084;50.518;8.588;2023-03-29T09:26:08;2.07;;;1.63;;
19846;SDS011;10084;50.518;8.588;2023-03-29T09:29:04;1.77;;;1.50;;
19846;SDS011;10084;50.518;8.588;2023-03-29T09:31:32;2.00;;;1.50;;
19846;SDS011;10084;50.518;8.588;2023-03-29T09:37:21;3.47;;;1.83;;
19846;SDS011;10084;50.518;8.588;2023-03-29T09:39:54;1.37;;;1.27;;
19846;SDS011;10084;50.518;8.588;2023-03-29T09:42:27;5.00;;;2.00;;
19846;SDS011;10084;50.518;8.588;2023-03-29T09:45:04;1.90;;;1.60;;
19846;SDS011;10084;50.518;8.588;2023-03-29T09:47:49;4.00;;;1.50;;
19846;SDS011;10084;50.518;8.588;2023-03-29T09:50:26;1.50;;;1.40;;
19846;SDS011;10084;50.518;8.588;2023-03-29T09:52:57;4.20;;;1.03;;
19846;SDS011;10084;50.518;8.588;2023-03-29T09:55:25;4.50;;;1.50;;
19846;SDS011;10084;50.518;8.588;2023-03-29T09:58:18;3.97;;;1.47;;
19846;SDS011;10084;50.518;8.588;2023-03-29T10:00:49;1.87;;;1.70;;
19846;SDS011;10084;50.518;8.588;2023-03-29T10:03:16;3.30;;;1.50;;
19846;SDS011;10084;50.518;8.588;2023-03-29T10:05:55;2.03;;;1.77;;
19846;SDS011;10084;50.518;8.588;2023-03-29T10:08:27;1.87;;;1.53;;
19846;SDS011;10084;50.518;8.588;2023-03-29T10:11:06;3.27;;;1.23;;
19846;SDS011;10084;50.518;8.588;2023-03-29T10:13:41;2.43;;;1.43;;
19846;SDS011;10084;50.518;8.588;2023-03-29T10:16:16;4.70;;;1.50;;
19846;SDS011;10084;50.518;8.588;2023-03-29T10:18:47;2.07;;;1.30;;
19846;SDS011;10084;50.518;8.588;2023-03-29T10:21:18;1.90;;;1.67;;
19846;SDS011;10084;50.518;8.588;2023-03-29T10:23:46;1.20;;;1.10;;
19846;SDS011;10084;50.518;8.588;2023-03-29T10:26:19;5.13;;;1.50;;
19846;SDS011;10084;50.518;8.588;2023-03-29T10:28:50;1.47;;;1.37;;
19846;SDS011;10084;50.518;8.588;2023-03-29T10:31:19;2.13;;;1.50;;
19846;SDS011;10084;50.518;8.588;2023-03-29T10:33:50;3.17;;;1.40;;
19846;SDS011;10084;50.518;8.588;2023-03-29T10:36:18;1.97;;;1.60;;
19846;SDS011;10084;50.518;8.588;2023-03-29T10:38:45;5.73;;;1.80;;
19846;SDS011;10084;50.518;8.588;2023-03-29T10:41:12;1.40;;;1.23;;
19846;SDS011;10084;50.518;8.588;2023-03-29T10:43:46;1.87;;;1.50;;
19846;SDS011;10084;50.518;8.588;2023-03-29T10:46:22;2.93;;;1.53;;
19846;SDS011;10084;50.518;8.588;2023-03-29T10:48:56;3.73;;;1.70;;
19846;SDS011;10084;50.518;8.588;2023-03-29T10:51:25;1.43;;;1.33;;
19846;SDS011;10084;50.518;8.588;2023-03-29T10:53:56;2.23;;;1.47;;
19846;SDS011;10084;50.518;8.588;2023-03-29T11:01:31;1.37;;;1.23;;
19846;SDS011;10084;50.518;8.588;2023-03-29T11:18:29;4.63;;;1.40;;
19846;SDS011;10084;50.518;8.588;2023-03-29T11:24:36;1.20;;;1.10;;
19846;SDS011;10084;50.518;8.588;2023-03-29T11:36:02;3.83;;;2.00;;
19846;SDS011;10084;50.518;8.588;2023-03-29T11:41:26;2.53;;;1.70;;
19846;SDS011;10084;50.518;8.588;2023-03-29T11:44:01;1.67;;;1.57;;
19846;SDS011;10084;50.518;8.588;2023-03-29T11:46:32;1.83;;;1.73;;
19846;SDS011;10084;50.518;8.588;2023-03-29T11:49:16;4.17;;;1.40;;
19846;SDS011;10084;50.518;8.588;2023-03-29T11:51:49;2.00;;;1.90;;
19846;SDS011;10084;50.518;8.588;2023-03-29T11:57:00;6.23;;;2.10;;
19846;SDS011;10084;50.518;8.588;2023-03-29T11:59:44;4.57;;;1.77;;
19846;SDS011;10084;50.518;8.588;2023-03-29T12:02:26;2.20;;;1.90;;
19846;SDS011;10084;50.518;8.588;2023-03-29T12:04:58;2.93;;;2.10;;
19846;SDS011;10084;50.518;8.588;2023-03-29T12:07:31;2.20;;;2.10;;
19846;SDS011;10084;50.518;8.588;2023-03-29T12:10:04;2.10;;;1.70;;
19846;SDS011;10084;50.518;8.588;2023-03-29T12:15:20;3.70;;;2.10;;
19846;SDS011;10084;50.518;8.588;2023-03-29T12:20:32;2.43;;;1.50;;
19846;SDS011;10084;50.518;8.588;2023-03-29T12:23:01;2.43;;;2.07;;
19846;SDS011;10084;50.518;8.588;2023-03-29T12:25:30;1.67;;;1.50;;
19846;SDS011;10084;50.518;8.588;2023-03-29T12:33:08;1.40;;;1.30;;
19846;SDS011;10084;50.518;8.588;2023-03-29T12:38:58;1.37;;;1.27;;
19846;SDS011;10084;50.518;8.588;2023-03-29T12:41:43;5.23;;;1.87;;
19846;SDS011;10084;50.518;8.588;2023-03-29T12:44:25;2.53;;;2.03;;
19846;SDS011;10084;50.518;8.588;2023-03-29T12:46:55;2.47;;;1.60;;
19846;SDS011;10084;50.518;8.588;2023-03-29T12:49:27;4.93;;;1.00;;
19846;SDS011;10084;50.518;8.588;2023-03-29T12:51:57;3.53;;;1.20;;
19846;SDS011;10084;50.518;8.588;2023-03-29T12:54:26;3.40;;;1.20;;
19846;SDS011;10084;50.518;8.588;2023-03-29T12:56:56;3.50;;;0.77;;
19846;SDS011;10084;50.518;8.588;2023-03-29T12:59:44;1.73;;;1.00;;
19846;SDS011;10084;50.518;8.588;2023-03-29T13:07:14;3.40;;;1.67;;
19846;SDS011;10084;50.518;8.588;2023-03-29T13:10:09;1.27;;;1.17;;
19846;SDS011;10084;50.518;8.588;2023-03-29T13:12:54;0.90;;;0.83;;
19846;SDS011;10084;50.518;8.588;2023-03-29T13:15:22;0.57;;;0.43;;
19846;SDS011;10084;50.518;8.588;2023-03-29T13:17:57;0.93;;;0.60;;
19846;SDS011;10084;50.518;8.588;2023-03-29T13:20:46;2.77;;;0.70;;
19846;SDS011;10084;50.518;8.588;2023-03-29T13:26:40;0.57;;;0.50;;
19846;SDS011;10084;50.518;8.588;2023-03-29T13:32:29;0.50;;;0.50;;
19846;SDS011;10084;50.518;8.588;2023-03-29T13:38:25;2.03;;;0.70;;
19846;SDS011;10084;50.518;8.588;2023-03-29T13:40:56;5.53;;;0.80;;
19846;SDS011;10084;50.518;8.588;2023-03-29T13:43:35;1.87;;;0.80;;
19846;SDS011;10084;50.518;8.588;2023-03-29T13:46:17;3.27;;;0.50;;
19846;SDS011;10084;50.518;8.588;2023-03-29T13:48:56;1.03;;;0.60;;
19846;SDS011;10084;50.518;8.588;2023-03-29T13:51:41;5.40;;;0.60;;
19846;SDS011;10084;50.518;8.588;2023-03-29T13:54:15;0.60;;;0.60;;
19846;SDS011;10084;50.518;8.588;2023-03-29T13:59:35;0.70;;;0.60;;
19846;SDS011;10084;50.518;8.588;2023-03-29T14:02:10;1.07;;;0.53;;
19846;SDS011;10084;50.518;8.588;2023-03-29T14:05:02;2.37;;;0.80;;
19846;SDS011;10084;50.518;8.588;2023-03-29T14:07:31;0.93;;;0.50;;
19846;SDS011;10084;50.518;8.588;2023-03-29T14:09:57;2.30;;;0.70;;
19846;SDS011;10084;50.518;8.588;2023-03-29T14:12:25;1.10;;;1.00;;
19846;SDS011;10084;50.518;8.588;2023-03-29T14:15:00;1.23;;;0.80;;
19846;SDS011;10084;50.518;8.588;2023-03-29T14:17:28;1.00;;;0.90;;
19846;SDS011;10084;50.518;8.588;2023-03-29T14:19:55;1.53;;;0.63;;
19846;SDS011;10084;50.518;8.588;2023-03-29T14:22:23;1.47;;;0.90;;
19846;SDS011;10084;50.518;8.588;2023-03-29T14:24:54;0.80;;;0.70;;
19846;SDS011;10084;50.518;8.588;2023-03-29T14:27:20;3.53;;;0.87;;
19846;SDS011;10084;50.518;8.588;2023-03-29T14:29:47;4.87;;;0.70;;
19846;SDS011;10084;50.518;8.588;2023-03-29T14:32:16;0.90;;;0.70;;
19846;SDS011;10084;50.518;8.588;2023-03-29T14:34:52;0.90;;;0.70;;
19846;SDS011;10084;50.518;8.588;2023-03-29T14:37:20;1.47;;;0.70;;
19846;SDS011;10084;50.518;8.588;2023-03-29T14:39:48;1.23;;;1.00;;
19846;SDS011;10084;50.518;8.588;2023-03-29T14:42:16;1.20;;;0.57;;
19846;SDS011;10084;50.518;8.588;2023-03-29T14:44:46;2.83;;;0.60;;
19846;SDS011;10084;50.518;8.588;2023-03-29T14:47:14;3.23;;;0.70;;
19846;SDS011;10084;50.518;8.588;2023-03-29T14:49:48;3.60;;;0.80;;
19846;SDS011;10084;50.518;8.588;2023-03-29T14:52:15;0.83;;;0.70;;
19846;SDS011;10084;50.518;8.588;2023-03-29T14:54:44;1.03;;;0.93;;
19846;SDS011;10084;50.518;8.588;2023-03-29T14:57:13;3.47;;;1.10;;
19846;SDS011;10084;50.518;8.588;2023-03-29T14:59:43;1.30;;;1.20;;
19846;SDS011;10084;50.518;8.588;2023-03-29T15:02:27;1.77;;;1.30;;
19846;SDS011;10084;50.518;8.588;2023-03-29T15:04:58;1.10;;;0.80;;
19846;SDS011;10084;50.518;8.588;2023-03-29T15:07:29;5.93;;;0.73;;
19846;SDS011;10084;50.518;8.588;2023-03-29T15:09:59;2.13;;;1.07;;
19846;SDS011;10084;50.518;8.588;2023-03-29T15:12:27;2.17;;;1.10;;
19846;SDS011;10084;50.518;8.588;2023-03-29T15:14:54;1.13;;;0.77;;
19846;SDS011;10084;50.518;8.588;2023-03-29T15:19:56;1.27;;;0.90;;
19846;SDS011;10084;50.518;8.588;2023-03-29T15:22:31;1.93;;;0.83;;
19846;SDS011;10084;50.518;8.588;2023-03-29T15:24:58;2.67;;;0.70;;
19846;SDS011;10084;50.518;8.588;2023-03-29T15:27:26;0.80;;;0.60;;
19846;SDS011;10084;50.518;8.588;2023-03-29T15:29:58;0.80;;;0.77;;
19846;SDS011;10084;50.518;8.588;2023-03-29T15:32:33;1.17;;;0.60;;
19846;SDS011;10084;50.518;8.588;2023-03-29T15:35:00;0.67;;;0.50;;
19846;SDS011;10084;50.518;8.588;2023-03-29T15:37:32;0.60;;;0.60;;
19846;SDS011;10084;50.518;8.588;2023-03-29T15:39:58;3.77;;;0.97;;
19846;SDS011;10084;50.518;8.588;2023-03-29T15:42:24;1.23;;;0.90;;
19846;SDS011;10084;50.518;8.588;2023-03-29T15:44:52;1.00;;;0.90;;
19846;SDS011;10084;50.518;8.588;2023-03-29T15:47:20;0.93;;;0.90;;
19846;SDS011;10084;50.518;8.588;2023-03-29T15:49:46;2.30;;;1.33;;
19846;SDS011;10084;50.518;8.588;2023-03-29T15:52:12;2.50;;;1.00;;
19846;SDS011;10084;50.518;8.588;2023-03-29T15:54:37;1.73;;;0.90;;
19846;SDS011;10084;50.518;8.588;2023-03-29T15:57:08;0.90;;;0.80;;
19846;SDS011;10084;50.518;8.588;2023-03-29T15:59:40;4.40;;;0.80;;
19846;SDS011;10084;50.518;8.588;2023-03-29T16:02:10;1.23;;;0.67;;
19846;SDS011;10084;50.518;8.588;2023-03-29T16:04:39;1.33;;;0.80;;
19846;SDS011;10084;50.518;8.588;2023-03-29T16:07:06;0.83;;;0.83;;
19846;SDS011;10084;50.518;8.588;2023-03-29T16:09:37;0.70;;;0.70;;
19846;SDS011;10084;50.518;8.588;2023-03-29T16:12:03;0.70;;;0.70;;
19846;SDS011;10084;50.518;8.588;2023-03-29T16:14:29;1.13;;;0.93;;
19846;SDS011;10084;50.518;8.588;2023-03-29T16:16:56;0.90;;;0.80;;
19846;SDS011;10084;50.518;8.588;2023-03-29T16:19:23;2.20;;;1.07;;
19846;SDS011;10084;50.518;8.588;2023-03-29T16:21:50;2.53;;;0.87;;
19846;SDS011;10084;50.518;8.588;2023-03-29T16:24:21;1.53;;;0.90;;
19846;SDS011;10084;50.518;8.588;2023-03-29T16:26:48;1.80;;;0.70;;
19846;SDS011;10084;50.518;8.588;2023-03-29T16:29:15;1.17;;;0.70;;
19846;SDS011;10084;50.518;8.588;2023-03-29T16:31:45;1.27;;;1.07;;
19846;SDS011;10084;50.518;8.588;2023-03-29T16:34:12;1.57;;;1.17;;
19846;SDS011;10084;50.518;8.588;2023-03-29T16:36:39;0.80;;;0.80;;
19846;SDS011;10084;50.518;8.588;2023-03-29T16:39:05;5.97;;;0.97;;
19846;SDS011;10084;50.518;8.588;2023-03-29T16:41:31;5.13;;;0.80;;
19846;SDS011;10084;50.518;8.588;2023-03-29T16:43:57;1.67;;;0.90;;
19846;SDS011;10084;50.518;8.588;2023-03-29T16:46:23;1.40;;;1.20;;
19846;SDS011;10084;50.518;8.588;2023-03-29T16:48:49;0.97;;;0.87;;
19846;SDS011;10084;50.518;8.588;2023-03-29T16:51:17;1.07;;;1.07;;
19846;SDS011;10084;50.518;8.588;2023-03-29T16:53:43;2.90;;;1.60;;
19846;SDS011;10084;50.518;8.588;2023-03-29T16:56:12;1.37;;;0.93;;
19846;SDS011;10084;50.518;8.588;2023-03-29T16:58:39;3.53;;;1.80;;